Time;durP1;ratioP1;P1;durP2;ratioP2;P2;SDS_P1;SDS_P2;PMS_P1;PMS_P2;Temp;Humidity;BMP_temperature;BMP_pressure;BME280_temperature;BME280_humidity;BME280_pressure;Samples;Min_cycle;Max_cycle;Signal;HPM_P1;HPM_P2
2021/08/25 00:01:15;;;;;;;3.90;2.50;;;;;;;17.09;81.34;98738.48;111104;1203;62060;-22
2021/08/25 00:03:44;;;;;;;5.60;3.60;;;;;;;17.42;80.68;98734.83;111145;1205;60880;-22
2021/08/25 00:06:12;;;;;;;4.50;3.40;;;;;;;17.79;79.17;98736.75;111154;1200;73067;-22
2021/08/25 00:08:41;;;;;;;6.00;4.70;;;;;;;17.74;79.13;98737.33;111150;1205;74908;-22
2021/08/25 00:11:09;;;;;;;7.30;4.00;;;;;;;17.45;80.17;98737.91;111107;1205;72988;-22
2021/08/25 00:13:38;;;;;;;3.70;2.30;;;;;;;17.31;80.95;98737.55;111089;1203;61914;-22
2021/08/25 00:16:07;;;;;;;6.90;3.10;;;;;;;17.64;80.00;98734.95;111094;1203;60953;-22
2021/08/25 00:18:35;;;;;;;4.90;3.50;;;;;;;18.04;78.47;98737.73;111095;1203;73872;-22
2021/08/25 00:21:03;;;;;;;5.00;3.60;;;;;;;18.01;78.32;98733.86;111137;1203;74408;-22
2021/08/25 00:23:31;;;;;;;4.90;4.00;;;;;;;17.77;79.03;98732.09;111091;1203;72977;-22
2021/08/25 00:25:59;;;;;;;4.70;3.60;;;;;;;17.49;79.88;98730.44;111156;1203;61511;-22
2021/08/25 00:28:28;;;;;;;7.30;3.70;;;;;;;17.46;80.47;98726.91;111140;1204;60922;-22
2021/08/25 00:30:56;;;;;;;4.50;4.00;;;;;;;17.77;79.52;98727.36;111153;1203;74153;-22
2021/08/25 00:33:24;;;;;;;6.00;4.10;;;;;;;17.64;79.88;98729.16;111145;1203;74531;-22
2021/08/25 00:35:53;;;;;;;7.50;4.50;;;;;;;17.38;80.61;98731.13;111105;1203;73370;-22
2021/08/25 00:38:21;;;;;;;3.80;2.60;;;;;;;17.09;81.70;98727.48;111105;1203;62146;-22
2021/08/25 00:40:50;;;;;;;4.50;3.80;;;;;;;17.48;80.72;98727.55;111149;1203;60845;-21
2021/08/25 00:43:18;;;;;;;5.40;3.90;;;;;;;17.80;79.21;98723.27;111078;1204;72722;-20
2021/08/25 00:45:46;;;;;;;5.30;3.80;;;;;;;17.61;79.56;98718.36;111167;1205;75415;-22
2021/08/25 00:48:15;;;;;;;4.70;3.20;;;;;;;17.28;80.82;98713.02;111016;1203;72810;-24
2021/08/25 00:50:50;;;;;;;7.70;3.50;;;;;;;17.16;80.78;98710.57;110998;1203;62434;-24
2021/08/25 00:53:22;;;;;;;4.00;3.40;;;;;;;17.33;80.13;98712.55;111013;1205;61671;-23
2021/08/25 00:56:06;;;;;;;6.80;3.30;;;;;;;17.15;80.24;98718.23;110967;1206;73693;-23
2021/08/25 00:58:38;;;;;;;5.40;3.70;;;;;;;16.87;81.12;98715.61;111091;1204;74516;-23
2021/08/25 01:01:12;;;;;;;9.10;2.10;;;;;;;16.49;82.44;98718.04;111006;1204;73123;-23
2021/08/25 01:03:52;;;;;;;3.80;2.40;;;;;;;16.79;80.69;98717.35;111041;1199;60855;-23
2021/08/25 01:06:21;;;;;;;6.40;2.40;;;;;;;16.81;79.86;98714.43;111110;1203;60985;-24
2021/08/25 01:08:50;;;;;;;2.50;2.10;;;;;;;16.64;79.96;98714.23;111089;1203;74445;-23
2021/08/25 01:11:19;;;;;;;3.40;1.90;;;;;;;16.46;80.19;98714.44;111197;1205;74346;-22
2021/08/25 01:13:47;;;;;;;2.40;1.30;;;;;;;16.17;81.54;98713.55;111143;1203;73863;-23
2021/08/25 01:16:16;;;;;;;4.80;2.30;;;;;;;16.46;80.71;98712.30;111072;1203;60859;-22
2021/08/25 01:18:45;;;;;;;5.70;3.30;;;;;;;16.61;79.62;98711.23;111003;1204;60871;-23
2021/08/25 01:21:14;;;;;;;4.70;2.40;;;;;;;16.56;79.61;98710.41;110932;1205;74128;-22
2021/08/25 01:23:44;;;;;;;3.50;2.40;;;;;;;16.32;80.15;98710.21;111007;1204;75642;-23
2021/08/25 01:26:15;;;;;;;2.10;1.70;;;;;;;16.12;80.89;98707.62;111066;1204;73950;-22
2021/08/25 01:28:51;;;;;;;3.30;1.90;;;;;;;16.45;79.60;98699.96;111038;1205;60861;-22
2021/08/25 01:31:26;;;;;;;2.10;1.50;;;;;;;16.73;78.07;98703.21;110931;1204;60861;-23
2021/08/25 01:34:12;;;;;;;2.80;1.60;;;;;;;16.60;78.21;98700.58;110963;1198;73440;-22
2021/08/25 01:36:42;;;;;;;2.70;1.40;;;;;;;16.32;78.63;98702.16;110927;1205;75358;-22
2021/08/25 01:39:10;;;;;;;1.40;0.90;;;;;;;16.01;79.48;98704.80;111085;1204;73784;-22
2021/08/25 01:41:39;;;;;;;2.40;1.30;;;;;;;16.25;78.54;98704.41;111059;1205;60883;-22
2021/08/25 01:44:07;;;;;;;1.40;1.10;;;;;;;16.51;76.90;98705.33;111108;1203;60874;-22
2021/08/25 01:46:37;;;;;;;2.00;1.00;;;;;;;16.17;77.20;98706.15;111097;1205;73878;-22
2021/08/25 01:49:06;;;;;;;2.00;1.10;;;;;;;15.81;77.61;98710.58;110954;1205;75554;-22
2021/08/25 01:51:36;;;;;;;1.00;0.90;;;;;;;15.43;78.61;98710.48;110951;1205;72988;-22
2021/08/25 01:54:04;;;;;;;1.50;0.70;;;;;;;15.23;79.34;98712.41;111080;1205;62166;-22
2021/08/25 01:56:32;;;;;;;0.70;0.70;;;;;;;15.56;77.74;98712.27;111054;1205;60945;-22
2021/08/25 01:59:01;;;;;;;0.80;0.80;;;;;;;15.66;76.71;98706.95;111061;1204;75176;-22
2021/08/25 02:01:29;;;;;;;0.90;0.70;;;;;;;15.43;77.41;98712.21;111090;1204;75440;-22
2021/08/25 02:03:58;;;;;;;1.80;0.70;;;;;;;15.07;78.33;98711.42;111114;1205;73165;-22
2021/08/25 02:06:27;;;;;;;1.50;0.60;;;;;;;14.83;79.44;98712.79;111088;1205;62290;-21
2021/08/25 02:08:56;;;;;;;0.60;0.60;;;;;;;15.12;78.55;98709.41;111113;1203;60878;-22
2021/08/25 02:11:25;;;;;;;3.90;0.70;;;;;;;15.41;77.48;98710.72;111080;1203;74103;-21
2021/08/25 02:13:54;;;;;;;0.50;0.50;;;;;;;15.29;77.36;98711.30;111066;1205;75509;-22
2021/08/25 02:16:25;;;;;;;3.20;0.80;;;;;;;14.95;78.17;98709.18;111007;1204;73616;-24
2021/08/25 02:18:54;;;;;;;1.00;0.70;;;;;;;14.71;79.07;98709.80;110969;1204;62463;-23
2021/08/25 02:21:23;;;;;;;0.80;0.60;;;;;;;15.00;78.81;98710.76;111038;1203;60973;-23
2021/08/25 02:23:51;;;;;;;1.20;0.70;;;;;;;15.29;77.47;98707.23;111072;1205;75525;-23
2021/08/25 02:26:19;;;;;;;0.60;0.50;;;;;;;15.10;77.76;98706.54;111081;1204;75544;-24
2021/08/25 02:28:49;;;;;;;1.20;1.10;;;;;;;14.85;78.04;98708.86;111107;1204;72632;-24
2021/08/25 02:31:18;;;;;;;1.70;0.60;;;;;;;14.58;79.05;98703.95;110840;1203;63320;-24
2021/08/25 02:33:47;;;;;;;3.00;0.60;;;;;;;14.83;78.70;98705.21;111091;1203;60826;-24
2021/08/25 02:36:16;;;;;;;1.70;0.90;;;;;;;15.19;77.30;98704.84;111115;1203;75119;-23
2021/08/25 02:38:45;;;;;;;2.80;0.70;;;;;;;15.10;77.03;98702.08;110958;1205;75736;-23
2021/08/25 02:41:15;;;;;;;4.00;1.10;;;;;;;14.81;77.73;98698.60;111071;1205;73064;-23
2021/08/25 02:43:44;;;;;;;2.00;0.90;;;;;;;14.49;78.44;98698.98;110989;1205;61310;-23
2021/08/25 02:46:13;;;;;;;5.50;0.60;;;;;;;14.18;79.81;98698.89;111042;1204;60884;-23
2021/08/25 02:48:42;;;;;;;1.30;0.70;;;;;;;14.58;78.78;98701.08;111135;1203;74914;-24
2021/08/25 02:51:11;;;;;;;0.80;0.60;;;;;;;14.97;77.35;98700.79;111129;1203;75599;-21
2021/08/25 02:53:39;;;;;;;1.60;0.70;;;;;;;14.89;77.37;98703.73;111010;1203;72945;-22
2021/08/25 02:56:08;;;;;;;2.00;0.70;;;;;;;14.60;77.59;98698.80;111140;1205;60993;-21
2021/08/25 02:58:36;;;;;;;0.70;0.70;;;;;;;14.21;79.03;98699.45;111014;1204;60855;-23
2021/08/25 03:01:04;;;;;;;0.70;0.50;;;;;;;14.02;79.59;98700.72;111062;1195;74189;-24
2021/08/25 03:03:33;;;;;;;8.60;0.70;;;;;;;14.39;79.14;98699.03;111046;1203;74759;-23
2021/08/25 03:06:01;;;;;;;0.70;0.70;;;;;;;14.71;77.64;98697.58;111082;1203;72939;-23
2021/08/25 03:08:30;;;;;;;0.70;0.60;;;;;;;14.60;77.82;98698.82;111111;1203;60861;-23
2021/08/25 03:10:58;;;;;;;1.70;0.70;;;;;;;14.40;77.90;98697.19;111025;1200;60942;-22
2021/08/25 03:13:26;;;;;;;1.20;1.10;;;;;;;14.13;78.71;98704.27;111119;1203;74804;-23
2021/08/25 03:15:55;;;;;;;2.50;0.60;;;;;;;13.85;79.94;98705.38;111128;1203;75655;-22
2021/08/25 03:18:23;;;;;;;2.50;1.00;;;;;;;14.12;79.46;98701.06;111059;1203;74018;-22
2021/08/25 03:20:51;;;;;;;2.00;0.70;;;;;;;14.48;78.36;98699.37;111044;1203;60868;-22
2021/08/25 03:23:20;;;;;;;0.90;0.70;;;;;;;14.47;78.11;98694.92;111139;1203;60784;-22
2021/08/25 03:25:48;;;;;;;0.90;0.80;;;;;;;14.30;78.40;98700.48;110978;1204;74382;-22
2021/08/25 03:28:16;;;;;;;2.50;0.90;;;;;;;14.06;78.96;98701.52;111088;1203;75401;-22
2021/08/25 03:30:45;;;;;;;0.90;0.50;;;;;;;13.85;79.73;98700.80;111074;1203;73581;-22
2021/08/25 03:33:13;;;;;;;2.00;0.50;;;;;;;14.22;79.21;98703.92;111117;1203;61559;-22
2021/08/25 03:35:41;;;;;;;2.20;0.70;;;;;;;14.64;77.74;98703.55;111112;1197;60876;-22
2021/08/25 03:38:09;;;;;;;1.90;0.80;;;;;;;14.60;77.70;98707.36;111091;1203;75128;-21
2021/08/25 03:40:37;;;;;;;2.10;0.80;;;;;;;14.52;78.19;98710.52;111096;1203;75492;-24
2021/08/25 03:43:05;;;;;;;1.30;0.80;;;;;;;14.37;78.50;98711.63;111027;1203;72971;-23
2021/08/25 03:45:34;;;;;;;2.80;0.50;;;;;;;14.25;78.92;98712.81;110923;1204;62011;-23
2021/08/25 03:48:02;;;;;;;5.40;0.70;;;;;;;14.62;77.89;98714.75;111066;1199;60973;-22
2021/08/25 03:50:31;;;;;;;4.00;0.90;;;;;;;14.93;77.01;98715.73;110996;1198;73453;-24
2021/08/25 03:52:59;;;;;;;1.40;0.90;;;;;;;14.75;76.93;98712.20;111121;1203;75377;-23
2021/08/25 03:55:27;;;;;;;1.60;1.10;;;;;;;14.37;78.40;98710.96;111113;1203;73775;-22
2021/08/25 03:57:56;;;;;;;2.30;1.20;;;;;;;14.29;78.53;98706.92;111038;1199;60871;-24
2021/08/25 04:00:24;;;;;;;5.80;0.90;;;;;;;14.12;79.07;98707.85;111140;1203;60986;-23
2021/08/25 04:02:53;;;;;;;1.20;0.80;;;;;;;14.57;78.53;98708.77;111018;1203;74261;-23
2021/08/25 04:05:21;;;;;;;1.30;1.00;;;;;;;15.01;76.58;98702.52;111147;1203;75598;-23
2021/08/25 04:07:49;;;;;;;1.60;1.00;;;;;;;14.75;77.24;98700.27;111112;1204;73155;-23
2021/08/25 04:10:18;;;;;;;1.40;1.10;;;;;;;14.62;77.76;98701.54;111152;1203;61744;-23
2021/08/25 04:13:07;;;;;;;4.40;1.10;;;;;;;14.43;77.84;98704.04;111075;1203;61740;-23
2021/08/25 04:15:55;;;;;;;1.00;0.80;;;;;;;14.10;78.94;98703.09;111070;1203;76524;-23
2021/08/25 04:18:27;;;;;;;1.90;1.00;;;;;;;14.42;78.47;98703.48;111102;1203;75552;-23
2021/08/25 04:20:56;;;;;;;3.70;1.00;;;;;;;14.70;77.38;98699.77;111139;1203;74149;-23
2021/08/25 04:23:24;;;;;;;1.50;1.00;;;;;;;14.69;77.24;98698.59;111110;1203;60852;-23
2021/08/25 04:25:52;;;;;;;0.70;0.70;;;;;;;14.60;77.15;98703.70;111052;1197;60912;-23
2021/08/25 04:28:21;;;;;;;3.10;0.50;;;;;;;14.48;77.21;98693.10;111185;1203;74997;-23
2021/08/25 04:30:49;;;;;;;1.20;0.70;;;;;;;14.88;76.90;98698.89;111137;1203;75560;-23
2021/08/25 04:33:18;;;;;;;2.00;0.80;;;;;;;15.37;75.57;98690.80;111174;1203;72093;-23
2021/08/25 04:35:46;;;;;;;0.70;0.60;;;;;;;15.37;74.89;98686.67;111156;1203;61675;-23
2021/08/25 04:38:14;;;;;;;1.20;0.90;;;;;;;15.22;75.00;98685.10;111063;1203;60858;-23
2021/08/25 04:40:43;;;;;;;1.80;1.10;;;;;;;14.84;76.54;98683.44;111139;1203;74132;-23
2021/08/25 04:43:12;;;;;;;0.70;0.70;;;;;;;14.58;77.81;98678.09;111052;1203;75740;-23
2021/08/25 04:45:40;;;;;;;10.40;0.90;;;;;;;15.13;77.16;98680.05;111138;1203;72939;-23
2021/08/25 04:48:08;;;;;;;3.40;0.70;;;;;;;15.28;75.56;98671.16;111126;1203;60909;-23
2021/08/25 04:50:37;;;;;;;1.50;0.60;;;;;;;15.20;75.93;98669.52;111147;1203;60845;-23
2021/08/25 04:53:07;;;;;;;1.60;0.70;;;;;;;14.93;76.82;98670.60;111057;1198;73320;-21
2021/08/25 04:55:39;;;;;;;1.20;0.50;;;;;;;14.74;77.89;98671.71;111044;1203;75561;-23
2021/08/25 04:58:07;;;;;;;1.70;0.60;;;;;;;14.76;78.22;98675.20;111109;1203;74140;-23
2021/08/25 05:00:36;;;;;;;1.40;0.40;;;;;;;15.28;76.69;98672.21;111071;1205;60794;-23
2021/08/25 05:03:04;;;;;;;0.80;0.50;;;;;;;15.63;75.00;98667.34;111095;1203;60805;-22
2021/08/25 05:05:33;;;;;;;0.50;0.50;;;;;;;15.34;75.20;98665.61;111158;1203;73882;-24
2021/08/25 05:08:01;;;;;;;1.90;0.70;;;;;;;15.15;76.00;98670.60;111068;1203;75340;-23
2021/08/25 05:10:30;;;;;;;0.80;0.40;;;;;;;14.93;76.80;98670.14;111051;1203;73804;-23
2021/08/25 05:12:59;;;;;;;1.10;0.50;;;;;;;14.87;77.48;98670.73;111102;1203;62320;-23
2021/08/25 05:15:35;;;;;;;0.40;0.40;;;;;;;15.28;77.00;98668.70;111127;1203;60881;-22
2021/08/25 05:18:04;;;;;;;1.20;0.70;;;;;;;15.53;75.25;98665.27;111060;1198;74281;-22
2021/08/25 05:20:34;;;;;;;0.70;0.60;;;;;;;15.49;75.98;98666.79;110983;1205;75440;-23
2021/08/25 05:23:03;;;;;;;0.50;0.50;;;;;;;15.17;76.89;98674.92;110907;1198;73072;-22
2021/08/25 05:25:31;;;;;;;1.70;0.50;;;;;;;14.81;78.31;98672.76;111063;1205;62406;-23
2021/08/25 05:28:00;;;;;;;1.80;0.70;;;;;;;15.39;76.92;98671.88;111023;1204;60932;-22
2021/08/25 05:30:28;;;;;;;1.50;0.50;;;;;;;15.60;75.81;98671.88;111009;1205;74326;-22
2021/08/25 05:32:56;;;;;;;1.80;0.60;;;;;;;15.53;75.72;98677.23;111006;1203;75510;-22
2021/08/25 05:35:24;;;;;;;1.50;0.60;;;;;;;15.33;76.74;98677.80;111029;1205;72320;-23
2021/08/25 05:37:52;;;;;;;2.40;0.60;;;;;;;15.09;77.45;98676.27;111044;1204;63302;-22
2021/08/25 05:40:21;;;;;;;5.30;0.80;;;;;;;15.22;76.75;98668.14;111096;1204;60972;-22
2021/08/25 05:42:49;;;;;;;0.90;0.50;;;;;;;15.48;76.18;98665.23;111149;1205;75143;-22
2021/08/25 05:45:18;;;;;;;2.50;0.50;;;;;;;15.46;75.91;98664.36;111074;1198;75540;-22
2021/08/25 05:47:46;;;;;;;1.00;0.60;;;;;;;15.13;77.69;98667.00;111041;1204;72100;-23
2021/08/25 05:50:15;;;;;;;1.40;0.50;;;;;;;15.15;77.77;98668.32;111007;1204;60951;-23
2021/08/25 05:52:43;;;;;;;0.70;0.60;;;;;;;15.47;76.47;98668.23;111135;1203;60900;-22
2021/08/25 05:55:11;;;;;;;2.20;0.80;;;;;;;15.67;76.13;98668.20;111037;1197;75188;-23
2021/08/25 05:57:45;;;;;;;1.90;1.10;;;;;;;15.48;75.79;98672.30;110981;1204;74552;-23
2021/08/25 06:00:15;;;;;;;2.40;0.80;;;;;;;15.18;77.14;98669.92;110987;1200;72021;-23
2021/08/25 06:02:50;;;;;;;0.50;0.50;;;;;;;15.31;76.22;98668.02;111005;1205;62507;-23
2021/08/25 06:05:19;;;;;;;0.90;0.60;;;;;;;15.64;74.95;98667.88;111067;1204;61324;-23
2021/08/25 06:07:48;;;;;;;1.40;0.70;;;;;;;15.92;74.39;98665.14;111104;1203;74980;-23
2021/08/25 06:10:17;;;;;;;1.40;1.20;;;;;;;15.65;73.49;98663.86;111127;1203;75710;-23
2021/08/25 06:12:56;;;;;;;2.10;1.10;;;;;;;15.23;75.22;98667.14;111073;1203;74217;-23
2021/08/25 06:15:24;;;;;;;4.40;1.00;;;;;;;15.10;75.60;98671.63;110971;1204;63684;-23
2021/08/25 06:17:56;;;;;;;1.10;0.90;;;;;;;15.50;75.12;98668.81;111061;1203;60848;-23
2021/08/25 06:20:24;;;;;;;0.80;0.70;;;;;;;15.82;73.72;98664.46;111145;1203;75183;-23
2021/08/25 06:22:52;;;;;;;1.00;0.90;;;;;;;15.78;74.32;98669.32;111143;1203;74671;-23
2021/08/25 06:25:21;;;;;;;1.60;1.40;;;;;;;15.68;74.36;98668.27;111169;1203;71908;-21
2021/08/25 06:27:50;;;;;;;3.20;1.30;;;;;;;15.48;74.59;98669.91;111160;1203;60950;-22
2021/08/25 06:30:18;;;;;;;1.20;1.00;;;;;;;15.46;74.98;98667.52;111138;1203;61360;-22
2021/08/25 06:32:46;;;;;;;1.20;1.00;;;;;;;15.98;73.52;98663.12;111138;1203;75098;-21
2021/08/25 06:35:17;;;;;;;3.30;1.30;;;;;;;16.21;72.12;98660.04;111140;1203;74186;-25
2021/08/25 06:37:46;;;;;;;2.30;1.60;;;;;;;16.19;72.28;98663.38;111041;1203;74353;-25
2021/08/25 06:40:14;;;;;;;2.40;1.60;;;;;;;15.73;72.69;98659.52;111020;1203;60868;-23
2021/08/25 06:42:42;;;;;;;2.00;1.60;;;;;;;15.66;73.41;98660.50;111118;1203;60861;-23
2021/08/25 06:45:11;;;;;;;1.40;1.00;;;;;;;15.61;73.73;98665.71;111132;1203;74088;-22
2021/08/25 06:47:39;;;;;;;1.60;1.30;;;;;;;15.98;73.38;98661.83;111151;1203;74848;-23
2021/08/25 06:50:07;;;;;;;1.80;1.30;;;;;;;16.20;72.80;98660.86;111099;1203;74183;-24
2021/08/25 06:52:36;;;;;;;1.90;1.70;;;;;;;16.23;71.51;98661.05;111139;1204;60908;-23
2021/08/25 06:55:05;;;;;;;2.40;2.00;;;;;;;15.91;71.77;98666.83;111117;1203;61535;-23
2021/08/25 06:57:33;;;;;;;1.90;1.70;;;;;;;15.67;73.38;98671.14;111030;1203;73930;-23
2021/08/25 07:00:01;;;;;;;1.50;1.00;;;;;;;15.57;73.82;98679.23;111122;1203;75406;-23
2021/08/25 07:02:29;;;;;;;1.60;0.90;;;;;;;16.00;73.47;98677.27;111227;1203;72951;-22
2021/08/25 07:04:58;;;;;;;1.80;1.50;;;;;;;16.30;71.40;98674.85;111107;1203;60839;-23
2021/08/25 07:07:34;;;;;;;2.60;1.70;;;;;;;16.30;71.28;98672.88;111113;1202;60826;-23
2021/08/25 07:10:03;;;;;;;2.30;1.60;;;;;;;16.02;71.61;98672.33;111163;1195;75263;-23
2021/08/25 07:12:31;;;;;;;1.60;1.50;;;;;;;15.74;72.60;98671.46;110942;1203;74879;-23
2021/08/25 07:15:00;;;;;;;1.50;1.10;;;;;;;15.76;72.90;98670.70;111122;1202;73936;-23
2021/08/25 07:17:28;;;;;;;2.00;1.40;;;;;;;16.33;71.65;98671.21;111129;1203;60842;-23
2021/08/25 07:19:57;;;;;;;6.10;1.50;;;;;;;16.96;70.57;98672.04;111126;1202;61476;-23
2021/08/25 07:22:26;;;;;;;3.20;1.50;;;;;;;17.11;68.46;98674.51;111130;1203;75230;-23
2021/08/25 07:24:54;;;;;;;1.30;1.10;;;;;;;16.85;67.74;98677.42;111105;1200;74658;-23
2021/08/25 07:27:22;;;;;;;5.50;1.70;;;;;;;16.64;69.30;98682.45;111239;1201;73946;-23
2021/08/25 07:29:51;;;;;;;1.10;0.90;;;;;;;16.37;70.01;98684.53;111231;1201;60861;-23
2021/08/25 07:32:19;;;;;;;1.10;0.90;;;;;;;16.31;69.70;98677.14;111311;1201;60903;-23
2021/08/25 07:34:47;;;;;;;1.20;1.10;;;;;;;16.55;69.85;98682.24;111266;1202;74906;-23
2021/08/25 07:37:16;;;;;;;1.30;1.20;;;;;;;16.69;69.21;98689.63;111257;1201;75376;-23
2021/08/25 07:39:51;;;;;;;1.80;1.50;;;;;;;16.49;70.08;98684.97;111236;1201;73967;-23
2021/08/25 07:42:19;;;;;;;2.10;1.60;;;;;;;16.28;70.55;98689.47;111234;1201;61290;-23
2021/08/25 07:44:48;;;;;;;1.30;1.10;;;;;;;16.14;71.15;98689.13;111220;1196;60858;-23
2021/08/25 07:47:16;;;;;;;3.50;1.00;;;;;;;16.25;70.93;98689.41;111217;1193;74301;-23
2021/08/25 07:49:44;;;;;;;1.80;1.60;;;;;;;16.80;68.75;98688.17;111244;1200;74769;-23
2021/08/25 07:52:13;;;;;;;1.60;1.20;;;;;;;16.92;68.58;98682.86;111204;1202;74040;-23
2021/08/25 07:54:41;;;;;;;1.60;1.30;;;;;;;16.92;68.59;98682.09;111216;1201;60872;-24
2021/08/25 07:57:10;;;;;;;1.70;1.50;;;;;;;16.73;68.79;98681.38;111188;1201;61916;-22
2021/08/25 07:59:38;;;;;;;1.70;1.50;;;;;;;16.51;69.91;98676.52;111289;1201;75262;-22
2021/08/25 08:02:06;;;;;;;1.40;0.90;;;;;;;16.46;70.61;98679.93;111271;1201;75480;-23
2021/08/25 08:04:35;;;;;;;1.40;1.20;;;;;;;17.07;69.42;98678.42;111245;1201;73863;-24
2021/08/25 08:07:03;;;;;;;1.20;1.10;;;;;;;17.65;68.15;98676.29;111288;1201;61590;-23
2021/08/25 08:09:32;;;;;;;1.20;1.10;;;;;;;17.74;66.11;98676.40;111271;1201;60900;-25
2021/08/25 08:12:00;;;;;;;2.10;1.40;;;;;;;17.40;66.94;98677.88;111172;1195;74343;-22
2021/08/25 08:14:30;;;;;;;1.50;1.40;;;;;;;16.97;68.50;98676.23;111187;1201;75494;-23
2021/08/25 08:17:00;;;;;;;2.10;1.40;;;;;;;16.81;69.02;98679.52;111258;1201;69927;-22
2021/08/25 08:19:30;;;;;;;2.00;1.30;;;;;;;16.50;69.82;98678.22;111150;1201;60809;-22
2021/08/25 08:22:00;;;;;;;1.50;1.20;;;;;;;16.76;70.06;98677.74;111181;1202;61322;-22
2021/08/25 08:24:29;;;;;;;1.50;1.40;;;;;;;17.13;68.93;98679.55;111158;1195;75066;-24
2021/08/25 08:26:58;;;;;;;1.80;1.50;;;;;;;17.19;68.39;98683.26;111186;1196;74161;-23
2021/08/25 08:29:28;;;;;;;2.60;1.50;;;;;;;17.02;68.03;98678.38;111157;1195;73693;-23
2021/08/25 08:31:56;;;;;;;1.30;1.20;;;;;;;16.77;69.00;98679.22;111120;1196;60853;-23
2021/08/25 08:34:24;;;;;;;1.40;1.20;;;;;;;16.67;70.44;98679.97;111246;1201;61536;-23
2021/08/25 08:36:53;;;;;;;1.00;0.90;;;;;;;16.72;70.24;98678.27;111254;1202;74164;-23
2021/08/25 08:39:21;;;;;;;1.20;1.10;;;;;;;17.28;68.27;98680.19;111270;1201;73178;-24
2021/08/25 08:41:50;;;;;;;1.50;1.40;;;;;;;17.59;67.79;98676.63;111259;1201;73160;-23
2021/08/25 08:44:20;;;;;;;3.10;1.60;;;;;;;17.40;67.34;98669.52;111171;1201;61014;-22
2021/08/25 08:46:50;;;;;;;1.90;1.30;;;;;;;17.34;67.93;98668.91;111169;1196;62353;-23
2021/08/25 08:49:18;;;;;;;2.20;1.40;;;;;;;17.22;69.19;98667.80;111155;1201;73884;-24
2021/08/25 08:51:46;;;;;;;3.40;2.40;;;;;;;17.21;69.34;98666.94;111259;1201;74656;-22
2021/08/25 08:54:15;;;;;;;1.30;1.20;;;;;;;17.26;69.24;98663.08;111152;1202;70438;-23
2021/08/25 08:56:44;;;;;;;1.30;1.20;;;;;;;17.52;67.88;98668.61;111126;1201;61665;-22
2021/08/25 08:59:12;;;;;;;1.30;1.20;;;;;;;17.81;67.84;98670.66;111222;1201;60831;-22
2021/08/25 09:01:40;;;;;;;3.00;1.60;;;;;;;17.64;68.10;98672.19;111269;1201;75281;-22
2021/08/25 09:04:35;;;;;;;1.60;1.40;;;;;;;17.28;68.77;98667.65;111164;1195;74766;-22
2021/08/25 09:07:03;;;;;;;1.40;1.30;;;;;;;17.33;68.65;98666.46;111152;1202;73001;-23
2021/08/25 09:09:51;;;;;;;2.80;1.50;;;;;;;17.25;69.44;98663.67;111254;1201;60899;-24
2021/08/25 09:12:19;;;;;;;1.60;1.20;;;;;;;17.33;69.44;98659.19;111160;1202;60924;-24
2021/08/25 09:14:47;;;;;;;1.70;1.60;;;;;;;17.72;68.33;98655.59;111142;1202;74132;-25
2021/08/25 09:17:27;;;;;;;2.10;1.80;;;;;;;18.17;66.72;98651.91;111128;1201;75532;-24
2021/08/25 09:20:08;;;;;;;2.40;1.80;;;;;;;18.33;65.71;98647.75;110960;1201;74068;-23
2021/08/25 09:22:37;;;;;;;2.90;2.20;;;;;;;18.11;66.55;98646.80;111114;1201;61792;-23
2021/08/25 09:25:05;;;;;;;3.30;2.90;;;;;;;17.73;67.65;98647.38;111229;1201;61648;-23
2021/08/25 09:27:33;;;;;;;2.40;1.80;;;;;;;17.46;67.81;98646.74;111186;1201;74125;-24
2021/08/25 09:30:04;;;;;;;1.40;1.10;;;;;;;17.19;69.43;98642.05;111180;1201;75597;-22
2021/08/25 09:32:33;;;;;;;1.90;1.20;;;;;;;17.58;68.75;98646.16;111136;1201;73380;-22
2021/08/25 09:35:02;;;;;;;1.50;1.40;;;;;;;17.65;68.04;98647.45;111202;1202;61705;-21
2021/08/25 09:37:31;;;;;;;1.40;1.30;;;;;;;17.23;69.20;98648.16;111176;1201;60995;-22
2021/08/25 09:40:02;;;;;;;1.50;1.40;;;;;;;17.29;68.98;98648.15;111147;1201;74173;-21
2021/08/25 09:42:42;;;;;;;1.00;1.00;;;;;;;17.42;68.41;98647.38;111158;1202;76014;-24
2021/08/25 09:45:13;;;;;;;0.60;0.60;;;;;;;17.15;69.93;98648.83;111061;1197;73244;-24
2021/08/25 09:47:46;;;;;;;1.40;1.10;;;;;;;17.61;68.42;98647.45;111116;1195;61516;-26
2021/08/25 09:50:16;;;;;;;1.00;1.00;;;;;;;18.09;67.23;98647.10;111143;1196;62278;-26
2021/08/25 09:52:44;;;;;;;1.40;1.10;;;;;;;17.97;66.84;98644.91;111149;1201;73839;-23
2021/08/25 09:55:46;;;;;;;0.90;0.90;;;;;;;18.13;66.23;98645.00;111136;1201;75720;-23
2021/08/25 09:58:14;;;;;;;2.20;1.40;;;;;;;17.97;67.02;98641.38;111070;1200;74077;-23
2021/08/25 10:00:43;;;;;;;1.70;1.30;;;;;;;17.64;67.58;98647.05;111149;1202;60868;-22
2021/08/25 10:03:12;;;;;;;1.60;1.40;;;;;;;17.58;68.74;98646.00;111138;1201;60816;-23
2021/08/25 10:05:45;;;;;;;0.60;0.60;;;;;;;17.70;68.08;98645.50;111167;1201;74161;-21
2021/08/25 10:08:15;;;;;;;6.80;0.80;;;;;;;17.75;67.69;98650.72;111062;1201;75654;-22
2021/08/25 10:10:43;;;;;;;0.70;0.70;;;;;;;17.82;67.68;98646.53;111089;1202;71242;-22
2021/08/25 10:13:12;;;;;;;1.90;0.70;;;;;;;17.34;69.57;98650.20;111184;1201;60839;-24
2021/08/25 10:15:55;;;;;;;1.20;0.70;;;;;;;17.07;70.23;98649.73;111118;1201;60832;-22
2021/08/25 10:18:25;;;;;;;0.70;0.70;;;;;;;16.95;70.60;98650.73;111178;1201;75093;-22
2021/08/25 10:20:58;;;;;;;0.50;0.50;;;;;;;16.90;71.19;98644.85;111067;1201;75576;-22
2021/08/25 10:23:58;;;;;;;0.60;0.50;;;;;;;17.32;70.37;98646.50;111005;1202;74169;-22
2021/08/25 10:26:32;;;;;;;1.50;0.60;;;;;;;17.43;70.19;98639.90;111050;1196;60936;-22
2021/08/25 10:29:02;;;;;;;1.50;0.60;;;;;;;17.34;70.15;98636.33;111071;1202;60871;-22
2021/08/25 10:31:49;;;;;;;0.80;0.50;;;;;;;17.12;70.60;98626.73;111069;1195;75168;-22
2021/08/25 10:34:22;;;;;;;2.00;0.40;;;;;;;16.78;72.54;98636.33;111182;1201;75858;-21
2021/08/25 10:36:51;;;;;;;0.90;0.50;;;;;;;16.95;73.03;98636.90;110989;1202;72920;-21
2021/08/25 10:39:29;;;;;;;2.10;0.50;;;;;;;17.42;70.48;98636.13;111011;1201;60993;-22
2021/08/25 10:41:58;;;;;;;1.90;0.40;;;;;;;16.98;73.12;98645.50;111192;1202;61003;-25
2021/08/25 10:44:42;;;;;;;0.70;0.60;;;;;;;16.95;73.37;98635.86;111046;1199;74152;-22
2021/08/25 10:47:12;;;;;;;0.50;0.30;;;;;;;16.88;73.57;98635.41;110986;1202;72836;-22
2021/08/25 10:49:49;;;;;;;0.40;0.30;;;;;;;17.47;72.02;98636.02;111009;1201;73332;-23
2021/08/25 10:52:18;;;;;;;0.40;0.40;;;;;;;17.64;70.78;98635.43;111168;1201;60908;-22
2021/08/25 10:54:48;;;;;;;0.80;0.60;;;;;;;17.76;70.52;98636.39;111178;1202;61654;-22
2021/08/25 10:57:21;;;;;;;0.30;0.30;;;;;;;17.83;69.13;98634.30;111013;1198;73904;-22
2021/08/25 10:59:49;;;;;;;0.40;0.40;;;;;;;17.58;70.17;98635.83;111035;1201;75590;-22
2021/08/25 11:02:18;;;;;;;0.50;0.50;;;;;;;17.85;69.01;98629.64;111165;1201;74083;-22
2021/08/25 11:04:46;;;;;;;0.50;0.50;;;;;;;18.30;68.05;98628.98;111162;1201;61561;-22
2021/08/25 11:07:15;;;;;;;1.10;0.90;;;;;;;18.41;68.47;98633.05;111176;1201;60851;-21
2021/08/25 11:09:48;;;;;;;0.70;0.60;;;;;;;18.76;66.20;98631.77;111192;1201;74123;-21
2021/08/25 11:12:27;;;;;;;0.70;0.60;;;;;;;17.93;68.50;98632.57;111071;1201;75623;-22
2021/08/25 11:14:56;;;;;;;1.40;0.50;;;;;;;17.63;69.44;98635.08;111139;1195;73152;-22
2021/08/25 11:17:32;;;;;;;2.40;0.70;;;;;;;17.55;69.74;98641.98;111171;1201;60840;-22
2021/08/25 11:20:05;;;;;;;0.80;0.70;;;;;;;17.73;69.70;98639.80;111124;1201;60953;-22
2021/08/25 11:22:41;;;;;;;0.50;0.50;;;;;;;17.94;69.23;98642.84;110978;1202;75611;-22
2021/08/25 11:25:09;;;;;;;0.50;0.50;;;;;;;18.00;69.48;98644.80;111073;1196;73993;-22
2021/08/25 11:27:50;;;;;;;0.80;0.70;;;;;;;18.03;69.10;98642.00;111172;1201;74318;-22
2021/08/25 11:30:20;;;;;;;1.20;0.70;;;;;;;17.95;68.83;98635.35;111061;1202;61497;-22
2021/08/25 11:33:09;;;;;;;;;;;;;;;17.57;69.91;98623.30;111045;1202;60871;-22
2021/08/25 11:35:39;;;;;;;0.90;0.60;;;;;;;17.69;69.33;98626.83;111170;1202;75404;-22
2021/08/25 11:38:11;;;;;;;0.70;0.50;;;;;;;17.69;69.41;98628.92;111158;1196;75421;-22